Terminal Aerodrome Forecast
Issued by NWS

Home | Current Version | Previous Version | Graphics & Text | Print | Product List | Glossary On
Versions: 1 2 3 4 5 6 7 8 9 10 11 12 13 14 15 16 17 18 19 20 21 22 23
000
FTUS43 KLSX 182340
TAFSUS
TAF
KSUS 182340Z 1900/1924 21006KT P6SM SCT100 BKN250
     FM190200 VRB04KT P6SM SKC
     FM191000 VRB03KT 4SM BR SCT250
     FM191500 VRB04KT P6SM SCT250
     FM192000 15007KT P6SM SCT250=

USA.gov is the U.S. government's official web portal to all federal, state and local government web resources and services.